createdAt,value
2023-01-05T00:02:01.720Z,24.73
2023-01-05T00:04:29.634Z,23.77
2023-01-05T00:06:57.679Z,19.88
2023-01-05T00:09:25.725Z,20.75
2023-01-05T00:12:12.229Z,23.65
2023-01-05T00:14:58.721Z,19.27
2023-01-05T00:17:45.737Z,21.77
2023-01-05T00:20:37.448Z,22.33
2023-01-05T00:23:06.531Z,20.35
2023-01-05T00:28:05.837Z,13.73
2023-01-05T00:30:41.428Z,15.93
2023-01-05T00:33:15.518Z,13.30
2023-01-05T00:35:43.777Z,15.68
2023-01-05T00:38:11.674Z,19.88
2023-01-05T00:40:39.750Z,20.10
2023-01-05T00:43:07.662Z,22.65
2023-01-05T00:45:35.792Z,30.52
2023-01-05T00:48:03.861Z,25.70
2023-01-05T00:50:31.915Z,21.52
2023-01-05T00:53:02.966Z,25.63
2023-01-05T00:55:30.910Z,33.35
2023-01-05T00:57:58.840Z,28.77
2023-01-05T01:00:26.905Z,21.95
2023-01-05T01:05:23.725Z,18.45
2023-01-05T01:07:52.867Z,20.90
2023-01-05T01:15:16.219Z,18.23
2023-01-05T01:17:44.395Z,16.63
2023-01-05T01:20:12.674Z,16.30
2023-01-05T01:22:40.538Z,17.17
2023-01-05T01:25:09.075Z,17.60
2023-01-05T01:27:37.138Z,20.27
2023-01-05T01:30:05.703Z,21.25
2023-01-05T01:32:33.614Z,20.65
2023-01-05T01:35:02.365Z,19.98
2023-01-05T01:37:30.743Z,21.23
2023-01-05T01:39:59.069Z,19.85
2023-01-05T01:42:27.522Z,18.23
2023-01-05T01:45:01.494Z,18.27
2023-01-05T01:47:41.993Z,16.90
2023-01-05T01:50:20.479Z,16.45
2023-01-05T01:52:51.483Z,15.85
2023-01-05T01:55:20.841Z,17.58
2023-01-05T01:57:50.903Z,15.05
2023-01-05T02:00:21.686Z,15.20
2023-01-05T02:02:55.108Z,30.98
2023-01-05T02:05:33.676Z,24.25
2023-01-05T02:08:01.592Z,21.50
2023-01-05T02:10:54.366Z,20.75
2023-01-05T02:13:32.206Z,19.40
2023-01-05T02:16:29.521Z,21.83
2023-01-05T02:19:06.115Z,21.42
2023-01-05T02:22:01.734Z,21.00
2023-01-05T02:24:48.233Z,19.65
2023-01-05T02:27:43.661Z,22.00
2023-01-05T02:30:29.639Z,23.30
2023-01-05T02:33:27.527Z,23.08
2023-01-05T02:36:29.098Z,23.88
2023-01-05T02:39:14.458Z,24.55
2023-01-05T02:42:12.327Z,22.40
2023-01-05T02:44:41.766Z,24.70
2023-01-05T02:47:30.328Z,25.05
2023-01-05T02:50:22.398Z,25.75
2023-01-05T02:53:08.050Z,25.13
2023-01-05T02:55:52.546Z,22.98
2023-01-05T02:59:54.563Z,21.17
2023-01-05T03:02:29.589Z,20.85
2023-01-05T03:05:10.821Z,17.50
2023-01-05T03:07:43.054Z,18.83
2023-01-05T03:10:34.062Z,19.75
2023-01-05T03:13:25.546Z,19.73
2023-01-05T03:16:02.245Z,19.02
2023-01-05T03:18:33.192Z,18.20
2023-01-05T03:21:02.022Z,17.23
2023-01-05T03:23:49.905Z,17.80
2023-01-05T03:26:37.233Z,19.10
2023-01-05T03:32:19.574Z,14.57
2023-01-05T03:35:13.914Z,15.73
2023-01-05T03:37:57.139Z,21.23
2023-01-05T03:40:31.059Z,27.98
2023-01-05T03:43:00.371Z,16.98
2023-01-05T03:45:46.044Z,18.30
2023-01-05T03:48:23.047Z,17.63
2023-01-05T03:50:51.380Z,18.25
2023-01-05T03:53:21.080Z,22.58
2023-01-05T03:58:17.871Z,17.30
2023-01-05T04:00:49.032Z,18.42
2023-01-05T04:03:20.444Z,21.33
2023-01-05T04:05:49.816Z,22.77
2023-01-05T04:08:18.613Z,22.83
2023-01-05T04:10:46.618Z,21.83
2023-01-05T04:13:15.268Z,25.50
2023-01-05T04:15:44.766Z,20.85
2023-01-05T04:18:14.234Z,20.88
2023-01-05T04:20:42.243Z,21.50
2023-01-05T04:23:10.126Z,23.08
2023-01-05T04:25:38.491Z,24.50
2023-01-05T04:28:20.701Z,23.27
2023-01-05T04:30:55.344Z,24.80
2023-01-05T04:33:26.151Z,22.13
2023-01-05T04:35:55.495Z,19.33
2023-01-05T04:38:27.402Z,19.73
2023-01-05T04:40:56.583Z,17.52
2023-01-05T04:43:26.600Z,22.48
2023-01-05T04:45:56.181Z,18.50
2023-01-05T04:48:25.955Z,22.13
2023-01-05T04:50:55.743Z,21.63
2023-01-05T04:56:00.367Z,19.00
2023-01-05T04:58:33.499Z,21.05
2023-01-05T05:01:01.557Z,26.75
2023-01-05T05:03:33.340Z,22.55
2023-01-05T05:06:02.895Z,27.30
2023-01-05T05:08:32.525Z,27.13
2023-01-05T05:11:02.235Z,23.50
2023-01-05T05:13:32.434Z,20.40
2023-01-05T05:16:02.301Z,23.10
2023-01-05T05:18:31.893Z,26.10
2023-01-05T05:20:59.892Z,24.77
2023-01-05T05:23:32.399Z,22.52
2023-01-05T05:26:01.093Z,21.02
2023-01-05T05:28:29.766Z,22.58
2023-01-05T05:30:58.185Z,20.38
2023-01-05T05:33:26.690Z,15.82
2023-01-05T05:35:54.788Z,14.95
2023-01-05T05:38:22.788Z,15.52
2023-01-05T05:40:50.667Z,20.02
2023-01-05T05:43:18.906Z,21.08
2023-01-05T05:45:50.583Z,18.50
2023-01-05T05:48:19.668Z,25.23
2023-01-05T05:50:47.666Z,26.33
2023-01-05T05:53:15.703Z,22.15
2023-01-05T05:55:43.873Z,24.55
2023-01-05T05:58:11.889Z,24.70
2023-01-05T06:00:40.029Z,24.08
2023-01-05T06:03:08.078Z,26.20
2023-01-05T06:05:36.258Z,27.55
2023-01-05T06:08:04.698Z,26.17
2023-01-05T06:10:32.647Z,25.17
2023-01-05T06:13:00.695Z,40.10
2023-01-05T06:15:28.631Z,35.47
2023-01-05T06:17:56.494Z,37.55
2023-01-05T06:20:24.523Z,29.95
2023-01-05T06:22:52.483Z,30.17
2023-01-05T06:25:20.304Z,33.03
2023-01-05T06:27:48.589Z,32.33
2023-01-05T06:30:16.718Z,36.40
2023-01-05T06:32:44.729Z,33.75
2023-01-05T06:35:13.427Z,33.13
2023-01-05T06:37:41.351Z,59.90
2023-01-05T06:40:11.682Z,45.25
2023-01-05T06:42:40.083Z,37.08
2023-01-05T06:45:08.889Z,31.10
2023-01-05T06:47:36.704Z,30.92
2023-01-05T06:50:04.912Z,25.73
2023-01-05T06:52:36.918Z,29.80
2023-01-05T06:55:05.715Z,69.07
2023-01-05T06:57:33.726Z,49.95
2023-01-05T07:00:01.688Z,47.85
2023-01-05T07:02:29.683Z,27.27
2023-01-05T07:04:57.689Z,25.88
2023-01-05T07:07:25.759Z,21.02
2023-01-05T07:09:53.954Z,26.60
2023-01-05T07:12:21.966Z,26.00
2023-01-05T07:14:54.349Z,30.42
2023-01-05T07:17:26.139Z,27.75
2023-01-05T07:24:49.987Z,26.45
2023-01-05T07:27:17.943Z,27.13
2023-01-05T07:29:45.980Z,18.65
2023-01-05T07:32:13.971Z,22.30
2023-01-05T07:34:41.822Z,21.90
2023-01-05T07:37:13.078Z,18.02
2023-01-05T07:39:40.935Z,17.35
2023-01-05T07:42:08.854Z,17.42
2023-01-05T07:47:06.152Z,12.52
2023-01-05T07:49:34.304Z,13.10
2023-01-05T07:52:02.251Z,35.45
2023-01-05T07:54:30.274Z,21.08
2023-01-05T07:56:58.371Z,20.67
2023-01-05T07:59:26.433Z,18.13
2023-01-05T08:01:54.727Z,14.40
2023-01-05T08:04:22.851Z,10.52
2023-01-05T08:06:52.736Z,11.25
2023-01-05T08:09:39.378Z,14.57
2023-01-05T08:12:07.572Z,10.40
2023-01-05T08:14:35.652Z,8.80
2023-01-05T08:17:03.723Z,19.92
2023-01-05T08:19:31.640Z,14.27
2023-01-05T08:21:59.971Z,12.68
2023-01-05T08:24:27.801Z,12.70
2023-01-05T08:26:55.926Z,16.08
2023-01-05T08:29:23.950Z,10.65
2023-01-05T08:31:52.020Z,10.50
2023-01-05T08:34:19.960Z,18.90
2023-01-05T08:36:47.972Z,12.02
2023-01-05T08:39:16.212Z,9.38
2023-01-05T08:41:44.403Z,19.45
2023-01-05T08:44:14.489Z,14.98
2023-01-05T08:46:42.504Z,16.45
2023-01-05T08:49:11.043Z,13.45
2023-01-05T08:51:39.488Z,8.93
2023-01-05T08:54:07.417Z,10.82
2023-01-05T08:56:39.004Z,10.43
2023-01-05T08:59:07.962Z,11.23
2023-01-05T09:01:37.197Z,10.73
2023-01-05T09:04:05.517Z,10.93
2023-01-05T09:06:33.544Z,9.60
2023-01-05T09:09:01.820Z,9.70
2023-01-05T09:11:29.752Z,13.13
2023-01-05T09:14:00.360Z,14.10
2023-01-05T09:19:19.181Z,9.65
2023-01-05T09:21:47.242Z,18.75
2023-01-05T09:24:15.417Z,20.52
2023-01-05T09:26:43.683Z,15.32
2023-01-05T09:29:12.840Z,11.50
2023-01-05T09:31:42.094Z,13.30
2023-01-05T09:34:10.776Z,10.95
2023-01-05T09:39:10.316Z,12.88
2023-01-05T09:41:51.713Z,13.25
2023-01-05T09:44:32.306Z,12.35
2023-01-05T09:47:23.436Z,11.70
2023-01-05T09:49:51.801Z,13.80
2023-01-05T09:52:22.346Z,14.68
2023-01-05T09:54:50.664Z,9.32
2023-01-05T09:57:25.646Z,10.23
2023-01-05T10:00:00.845Z,10.00
2023-01-05T10:02:34.592Z,12.93
2023-01-05T10:05:05.119Z,11.52
2023-01-05T10:07:44.615Z,25.58
2023-01-05T10:10:30.059Z,13.63
2023-01-05T10:13:05.673Z,17.17
2023-01-05T10:15:48.349Z,17.48
2023-01-05T10:18:21.363Z,15.65
2023-01-05T10:21:37.284Z,19.98
2023-01-05T10:24:21.746Z,11.10
2023-01-05T10:27:23.582Z,24.33
2023-01-05T10:29:45.742Z,17.90
2023-01-05T10:32:26.265Z,11.10
2023-01-05T10:35:50.498Z,12.45
2023-01-05T10:38:42.467Z,11.05
2023-01-05T10:41:41.583Z,11.70
2023-01-05T10:44:15.303Z,14.00
2023-01-05T10:46:52.344Z,12.15
2023-01-05T10:49:26.419Z,10.30
2023-01-05T10:51:57.465Z,9.65
2023-01-05T10:54:41.428Z,10.20
2023-01-05T10:57:36.541Z,9.68
2023-01-05T11:00:11.034Z,9.70
2023-01-05T11:02:43.333Z,9.55
2023-01-05T11:05:11.313Z,11.20
2023-01-05T11:07:54.156Z,26.52
2023-01-05T11:10:33.164Z,23.27
2023-01-05T11:13:21.565Z,29.92
2023-01-05T11:16:13.178Z,18.05
2023-01-05T11:18:49.201Z,9.23
2023-01-05T11:21:20.745Z,11.07
2023-01-05T11:24:01.099Z,10.80
2023-01-05T11:26:36.841Z,20.75
2023-01-05T11:29:11.557Z,17.40
2023-01-05T11:32:10.075Z,16.17
2023-01-05T11:34:46.995Z,15.07
2023-01-05T11:37:25.674Z,18.23
2023-01-05T11:39:59.781Z,17.02
2023-01-05T11:42:27.740Z,12.68
2023-01-05T11:45:03.026Z,15.30
2023-01-05T11:47:43.840Z,21.17
2023-01-05T11:50:18.725Z,12.63
2023-01-05T11:52:54.210Z,14.55
2023-01-05T11:55:31.708Z,11.18
2023-01-05T11:58:15.768Z,13.35
2023-01-05T12:01:13.006Z,11.55
2023-01-05T12:03:54.172Z,13.55
2023-01-05T12:06:30.302Z,13.75
2023-01-05T12:09:13.499Z,10.90
2023-01-05T12:12:00.131Z,12.63
2023-01-05T12:14:44.233Z,10.40
2023-01-05T12:17:17.226Z,13.55
2023-01-05T12:20:09.505Z,11.63
2023-01-05T12:23:13.422Z,13.43
2023-01-05T12:25:56.700Z,11.80
2023-01-05T12:30:24.604Z,12.68
2023-01-05T12:35:40.769Z,13.55
2023-01-05T12:38:20.220Z,17.02
2023-01-05T12:40:50.808Z,9.38
2023-01-05T12:43:35.830Z,17.70
2023-01-05T12:46:23.644Z,13.25
2023-01-05T12:48:58.466Z,20.65
2023-01-05T12:51:34.774Z,20.48
2023-01-05T12:54:30.459Z,14.10
2023-01-05T12:57:04.466Z,10.23
2023-01-05T12:59:55.114Z,8.85
2023-01-05T13:02:36.245Z,8.63
2023-01-05T13:05:19.382Z,9.57
2023-01-05T13:07:57.063Z,12.55
2023-01-05T13:10:45.767Z,11.82
2023-01-05T13:13:20.190Z,12.85
2023-01-05T13:16:04.890Z,13.23
2023-01-05T13:18:37.267Z,12.00
2023-01-05T13:21:11.152Z,14.25
2023-01-05T13:23:51.694Z,15.65
2023-01-05T13:26:22.510Z,20.17
2023-01-05T13:28:55.969Z,17.95
2023-01-05T13:31:50.880Z,14.88
2023-01-05T13:34:19.147Z,20.55
2023-01-05T13:36:46.947Z,36.30
2023-01-05T13:39:36.621Z,35.53
2023-01-05T13:42:25.845Z,40.78
2023-01-05T13:45:07.400Z,29.77
2023-01-05T13:48:07.224Z,24.77
2023-01-05T13:50:44.828Z,17.73
2023-01-05T13:53:25.981Z,22.95
2023-01-05T13:58:41.786Z,34.15
2023-01-05T14:01:16.014Z,44.47
2023-01-05T14:03:54.387Z,42.03
2023-01-05T14:06:26.231Z,34.10
2023-01-05T14:09:06.262Z,93.53
2023-01-05T14:11:36.528Z,39.92
2023-01-05T14:14:27.722Z,32.97
2023-01-05T14:16:56.428Z,23.73
2023-01-05T14:22:22.950Z,27.20
2023-01-05T14:24:52.376Z,58.85
2023-01-05T14:27:23.958Z,36.78
2023-01-05T14:32:34.766Z,80.45
2023-01-05T14:35:27.747Z,115.43
2023-01-05T14:38:01.086Z,89.57
2023-01-05T14:40:37.500Z,75.20
2023-01-05T14:43:27.112Z,63.58
2023-01-05T14:46:10.017Z,33.75
2023-01-05T14:48:42.631Z,32.03
2023-01-05T14:51:13.942Z,70.60
2023-01-05T14:53:45.437Z,67.68
2023-01-05T14:56:15.864Z,68.07
2023-01-05T14:58:43.873Z,53.88
2023-01-05T15:01:17.615Z,46.33
2023-01-05T15:04:05.823Z,53.17
2023-01-05T15:06:52.000Z,89.20
2023-01-05T15:09:38.743Z,81.55
2023-01-05T15:12:19.704Z,68.88
2023-01-05T15:15:09.454Z,42.42
2023-01-05T15:18:03.924Z,30.95
2023-01-05T15:21:06.240Z,44.53
2023-01-05T15:24:19.800Z,53.60
2023-01-05T15:27:03.086Z,49.33
2023-01-05T15:30:17.558Z,44.47
2023-01-05T15:32:50.369Z,31.55
2023-01-05T15:35:30.302Z,20.70
2023-01-05T15:38:20.997Z,41.72
2023-01-05T15:40:52.042Z,46.08
2023-01-05T15:43:21.551Z,36.88
2023-01-05T15:45:53.823Z,39.63
2023-01-05T15:48:33.711Z,38.17
2023-01-05T15:51:02.538Z,44.22
2023-01-05T15:53:52.874Z,38.80
2023-01-05T15:56:36.897Z,34.83
2023-01-05T15:59:26.201Z,32.10
2023-01-05T16:01:55.780Z,53.55
2023-01-05T16:04:24.751Z,44.88
2023-01-05T16:07:02.220Z,33.35
2023-01-05T16:09:34.499Z,21.00
2023-01-05T16:12:27.113Z,19.98
2023-01-05T16:15:05.571Z,51.35
2023-01-05T16:17:37.783Z,79.15
2023-01-05T16:20:27.403Z,78.07
2023-01-05T16:23:04.593Z,77.15
2023-01-05T16:25:42.195Z,85.03
2023-01-05T16:28:17.874Z,71.07
2023-01-05T16:30:48.232Z,42.42
2023-01-05T16:33:39.619Z,32.88
2023-01-05T16:36:22.562Z,84.25
2023-01-05T16:38:51.067Z,56.10
2023-01-05T16:41:29.576Z,54.38
2023-01-05T16:44:02.893Z,43.85
2023-01-05T16:46:37.746Z,34.13
2023-01-05T16:49:33.346Z,31.67
2023-01-05T16:52:03.424Z,52.85
2023-01-05T16:54:41.178Z,51.15
2023-01-05T16:57:35.060Z,46.63
2023-01-05T17:00:06.212Z,18.95
2023-01-05T17:02:45.832Z,20.10
2023-01-05T17:05:22.867Z,14.95
2023-01-05T17:08:05.776Z,20.30
2023-01-05T17:10:34.517Z,35.17
2023-01-05T17:13:07.187Z,21.05
2023-01-05T17:15:36.636Z,22.33
2023-01-05T17:18:34.735Z,19.65
2023-01-05T17:21:05.310Z,20.02
2023-01-05T17:23:40.478Z,20.40
2023-01-05T17:26:11.725Z,43.30
2023-01-05T17:28:42.231Z,51.70
2023-01-05T17:33:40.257Z,26.90
2023-01-05T17:36:08.996Z,61.58
2023-01-05T17:38:37.861Z,40.15
2023-01-05T17:41:07.134Z,42.78
2023-01-05T17:46:03.977Z,23.92
2023-01-05T17:48:32.516Z,15.10
2023-01-05T17:51:00.644Z,15.48
2023-01-05T17:53:28.931Z,23.02
2023-01-05T17:55:57.476Z,39.92
2023-01-05T17:58:27.239Z,39.03
2023-01-05T18:00:55.926Z,51.67
2023-01-05T18:03:24.412Z,25.08
2023-01-05T18:05:53.986Z,19.70
2023-01-05T18:08:23.014Z,20.92
2023-01-05T18:10:51.517Z,20.73
2023-01-05T18:13:22.556Z,18.33
2023-01-05T18:15:53.468Z,74.05
2023-01-05T18:18:22.372Z,58.42
2023-01-05T18:20:51.925Z,84.28
2023-01-05T18:23:21.245Z,73.95
2023-01-05T18:25:49.926Z,79.32
2023-01-05T18:28:18.664Z,50.30
2023-01-05T18:30:47.306Z,31.30
2023-01-05T18:33:15.893Z,54.80
2023-01-05T18:35:44.632Z,56.80
2023-01-05T18:38:13.111Z,70.07
2023-01-05T18:40:41.629Z,64.25
2023-01-05T18:43:10.307Z,51.13
2023-01-05T18:45:39.923Z,55.90
2023-01-05T18:48:09.216Z,47.65
2023-01-05T18:50:50.288Z,58.50
2023-01-05T18:53:20.692Z,50.13
2023-01-05T18:55:49.850Z,69.57
2023-01-05T19:00:47.185Z,77.28
2023-01-05T19:03:15.717Z,75.78
2023-01-05T19:05:45.089Z,52.08
2023-01-05T19:08:14.346Z,60.33
2023-01-05T19:10:43.091Z,60.08
2023-01-05T19:13:11.444Z,49.50
2023-01-05T19:15:40.066Z,69.03
2023-01-05T19:18:08.559Z,100.85
2023-01-05T19:20:37.049Z,22.92
2023-01-05T19:23:05.661Z,22.58
2023-01-05T19:25:34.618Z,56.33
2023-01-05T19:28:03.285Z,56.47
2023-01-05T19:30:31.917Z,55.13
2023-01-05T19:33:03.328Z,64.97
2023-01-05T19:35:31.918Z,67.47
2023-01-05T19:38:03.366Z,49.85
2023-01-05T19:40:31.791Z,50.22
2023-01-05T19:43:00.232Z,55.75
2023-01-05T19:45:28.572Z,51.30
2023-01-05T19:47:57.263Z,55.78
2023-01-05T19:50:26.026Z,52.00
2023-01-05T19:52:54.681Z,95.82
2023-01-05T19:55:23.075Z,62.33
2023-01-05T19:57:51.640Z,45.20
2023-01-05T20:00:20.211Z,74.22
2023-01-05T20:02:48.645Z,68.45
2023-01-05T20:05:17.811Z,60.45
2023-01-05T20:07:46.226Z,77.03
2023-01-05T20:10:14.924Z,79.22
2023-01-05T20:12:43.450Z,80.97
2023-01-05T20:15:13.506Z,67.90
2023-01-05T20:17:44.418Z,46.53
2023-01-05T20:20:14.011Z,50.83
2023-01-05T20:22:42.359Z,58.10
2023-01-05T20:25:11.234Z,60.58
2023-01-05T20:27:40.204Z,52.42
2023-01-05T20:30:09.221Z,44.28
2023-01-05T20:32:37.690Z,52.28
2023-01-05T20:35:06.335Z,53.00
2023-01-05T20:37:34.574Z,62.83
2023-01-05T20:40:04.886Z,61.13
2023-01-05T20:42:33.798Z,51.80
2023-01-05T20:45:04.162Z,52.28
2023-01-05T20:47:43.117Z,39.08
2023-01-05T20:50:16.411Z,48.15
2023-01-05T20:52:44.843Z,46.80
2023-01-05T20:55:13.503Z,70.85
2023-01-05T20:57:42.102Z,52.60
2023-01-05T21:00:12.836Z,68.72
2023-01-05T21:02:41.617Z,66.65
2023-01-05T21:05:12.150Z,60.72
2023-01-05T21:07:41.418Z,51.55
2023-01-05T21:10:09.998Z,31.15
2023-01-05T21:12:38.547Z,36.47
2023-01-05T21:15:08.261Z,49.97
2023-01-05T21:17:37.005Z,42.17
2023-01-05T21:20:06.743Z,44.60
2023-01-05T21:22:35.621Z,51.10
2023-01-05T21:25:03.766Z,51.03
2023-01-05T21:27:31.726Z,40.13
2023-01-05T21:29:59.709Z,38.10
2023-01-05T21:32:27.573Z,35.85
2023-01-05T21:34:55.832Z,32.40
2023-01-05T21:37:23.764Z,37.80
2023-01-05T21:39:51.861Z,37.75
2023-01-05T21:42:38.778Z,66.13
2023-01-05T21:45:08.766Z,60.85
2023-01-05T21:47:37.551Z,49.60
2023-01-05T21:50:07.572Z,53.00
2023-01-05T21:52:55.447Z,49.35
2023-01-05T21:55:42.113Z,47.05
2023-01-05T21:58:10.219Z,49.08
2023-01-05T22:00:38.346Z,47.50
2023-01-05T22:03:06.462Z,55.55
2023-01-05T22:05:34.455Z,57.60
2023-01-05T22:08:02.421Z,55.85
2023-01-05T22:10:30.400Z,50.45
2023-01-05T22:12:58.412Z,53.00
2023-01-05T22:15:26.363Z,32.65
2023-01-05T22:17:54.479Z,54.00
2023-01-05T22:20:22.431Z,52.05
2023-01-05T22:22:50.373Z,43.85
2023-01-05T22:25:18.352Z,46.95
2023-01-05T22:27:46.577Z,46.92
2023-01-05T22:30:14.569Z,46.95
2023-01-05T22:32:42.598Z,41.70
2023-01-05T22:35:10.611Z,43.72
2023-01-05T22:37:38.560Z,47.22
2023-01-05T22:40:07.694Z,45.45
2023-01-05T22:45:03.739Z,33.33
2023-01-05T22:47:31.678Z,35.22
2023-01-05T22:49:59.559Z,37.53
2023-01-05T22:52:27.782Z,30.70
2023-01-05T22:54:55.671Z,35.33
2023-01-05T22:57:23.624Z,33.58
2023-01-05T22:59:51.679Z,44.70
2023-01-05T23:02:19.557Z,43.10
2023-01-05T23:04:47.543Z,37.08
2023-01-05T23:07:17.596Z,30.90
2023-01-05T23:09:45.504Z,34.97
2023-01-05T23:12:13.345Z,27.95
2023-01-05T23:14:41.267Z,28.38
2023-01-05T23:17:12.460Z,32.65
2023-01-05T23:19:40.595Z,37.08
2023-01-05T23:22:10.809Z,29.85
2023-01-05T23:24:39.449Z,32.63
2023-01-05T23:27:07.466Z,28.20
2023-01-05T23:29:35.407Z,31.42
2023-01-05T23:32:04.551Z,29.70
2023-01-05T23:34:32.396Z,32.08
2023-01-05T23:37:00.379Z,30.05
2023-01-05T23:39:28.292Z,26.90
2023-01-05T23:41:56.409Z,29.58
2023-01-05T23:44:24.365Z,24.02
2023-01-05T23:46:52.469Z,26.17
2023-01-05T23:49:20.365Z,26.45
2023-01-05T23:51:48.368Z,28.73
2023-01-05T23:54:16.227Z,29.08
2023-01-05T23:56:44.182Z,25.23
2023-01-05T23:59:12.101Z,19.48
